This is the latest recevied weather packets stored in our database for station/object KD2ZLA. If no packets are shown the sender has not sent any weather packets the latest 10 day(s).
| Time | Temp. | Humidity | Pressure | Rain* | Wind** | Luminosity | Snow |
|---|---|---|---|---|---|---|---|
| 1777966864 | 15° C | 67% | 1001.9 hPa | 1.27 mm | - | 0 W/m² | - |
| 1777966562 | 15.56° C | 65% | 1001.8 hPa | 0.51 mm | - | 0 W/m² | - |
| 1777966260 | 16.11° C | 61% | 1001.7 hPa | 0.51 mm | - | 0 W/m² | - |
| 1777965955 | 16.11° C | 56% | 1001.2 hPa | 0 mm | - | 0 W/m² | - |
| 1777965652 | 16.11° C | 58% | 1001.2 hPa | 0 mm | - | 0 W/m² | - |
| 1777965348 | 15.56° C | 58% | 1000.9 hPa | 1.27 mm | - | 0 W/m² | - |
| 1777965048 | 16.11° C | 58% | 1001 hPa | 0.51 mm | - | 0 W/m² | - |
| 1777964743 | 17.22° C | 49% | 1000.9 hPa | 0 mm | - | 0 W/m² | - |
| 1777964439 | 16.67° C | 49% | 1000.9 hPa | 0 mm | - | 0 W/m² | - |
| 1777964135 | 16.67° C | 49% | 1001 hPa | 0 mm | - | 0 W/m² | - |
| 1777963832 | 16.67° C | 49% | 1000.9 hPa | 0 mm | - | 0 W/m² | - |
| 1777963528 | 16.67° C | 50% | 1001.1 hPa | 0 mm | - | 0 W/m² | - |
| 1777963227 | 16.11° C | 50% | 1001.1 hPa | 0 mm | - | 0 W/m² | - |
| 1777962924 | 16.11° C | 50% | 1001.3 hPa | 0 mm | - | 0 W/m² | - |
| 1777962620 | 15.56° C | 50% | 1001.1 hPa | 0 mm | - | 0 W/m² | - |
| 1777962317 | 16.11° C | 50% | 1001.2 hPa | 0 mm | - | 0 W/m² | - |
| 1777962014 | 16.11° C | 50% | 1001.1 hPa | 0 mm | - | 0 W/m² | - |
| 1777961712 | 15.56° C | 51% | 1001.1 hPa | 0 mm | - | 0 W/m² | - |
| 1777961409 | 15.56° C | 50% | 1001.3 hPa | 0 mm | - | 0 W/m² | - |
| 1777961106 | 16.11° C | 50% | 1001.3 hPa | 0 mm | - | 0 W/m² | - |
| 1777960802 | 16.11° C | 50% | 1001.5 hPa | 0 mm | - | 0 W/m² | - |
| 1777960498 | 15.56° C | 50% | 1001.4 hPa | 0 mm | - | 0 W/m² | - |
| 1777960195 | 15.56° C | 50% | 1001.4 hPa | 0 mm | - | 0 W/m² | - |
| 1777959893 | 16.11° C | 49% | 1001.4 hPa | 0 mm | - | 0 W/m² | - |
| 1777959590 | 16.11° C | 49% | 1001.5 hPa | 0 mm | - | 0 W/m² | - |
* Rain latest hour (hover to see other rain measurements)
** Current wind speed in m/s (hover to see current wind gust speed)